createdAt,value
2023-04-10T00:01:02.882Z,100.00
2023-04-10T00:03:31.486Z,100.00
2023-04-10T00:05:59.531Z,100.00
2023-04-10T00:08:27.322Z,100.00
2023-04-10T00:10:57.076Z,100.00
2023-04-10T00:13:24.832Z,100.00
2023-04-10T00:15:52.625Z,100.00
2023-04-10T00:18:20.463Z,100.00
2023-04-10T00:20:48.299Z,100.00
2023-04-10T00:23:16.057Z,100.00
2023-04-10T00:25:43.858Z,100.00
2023-04-10T00:28:12.962Z,100.00
2023-04-10T00:30:40.851Z,100.00
2023-04-10T00:33:08.658Z,100.00
2023-04-10T00:35:36.600Z,100.00
2023-04-10T00:38:04.377Z,100.00
2023-04-10T00:40:32.191Z,100.00
2023-04-10T00:42:59.914Z,100.00
2023-04-10T00:45:29.146Z,100.00
2023-04-10T00:47:57.621Z,100.00
2023-04-10T00:50:25.717Z,100.00
2023-04-10T00:52:54.173Z,100.00
2023-04-10T00:55:22.015Z,100.00
2023-04-10T00:57:50.009Z,100.00
2023-04-10T01:00:18.762Z,100.00
2023-04-10T01:02:50.654Z,100.00
2023-04-10T01:05:18.681Z,100.00
2023-04-10T01:07:59.607Z,100.00
2023-04-10T01:10:35.678Z,100.00
2023-04-10T01:13:12.757Z,100.00
2023-04-10T01:15:48.866Z,100.00
2023-04-10T01:18:24.000Z,100.00
2023-04-10T01:20:51.733Z,100.00
2023-04-10T01:23:45.943Z,100.00
2023-04-10T01:26:17.369Z,100.00
2023-04-10T01:28:54.226Z,100.00
2023-04-10T01:31:28.427Z,100.00
2023-04-10T01:34:01.169Z,100.00
2023-04-10T01:36:37.951Z,100.00
2023-04-10T01:39:07.876Z,100.00
2023-04-10T01:41:36.984Z,100.00
2023-04-10T01:44:08.370Z,100.00
2023-04-10T01:46:39.156Z,100.00
2023-04-10T01:49:07.957Z,100.00
2023-04-10T01:51:36.660Z,100.00
2023-04-10T01:54:10.498Z,100.00
2023-04-10T01:56:39.220Z,100.00
2023-04-10T01:59:09.013Z,100.00
2023-04-10T02:01:37.038Z,100.00
2023-04-10T02:04:05.088Z,100.00
2023-04-10T02:06:42.640Z,100.00
2023-04-10T02:09:18.087Z,100.00
2023-04-10T02:11:55.762Z,100.00
2023-04-10T02:14:28.469Z,100.00
2023-04-10T02:16:57.430Z,100.00
2023-04-10T02:19:28.083Z,100.00
2023-04-10T02:21:56.911Z,100.00
2023-04-10T02:24:24.860Z,100.00
2023-04-10T02:26:53.745Z,100.00
2023-04-10T02:29:21.618Z,100.00
2023-04-10T02:31:53.090Z,100.00
2023-04-10T02:34:20.949Z,100.00
2023-04-10T02:36:48.772Z,100.00
2023-04-10T02:39:16.704Z,100.00
2023-04-10T02:41:50.613Z,100.00
2023-04-10T02:44:18.660Z,100.00
2023-04-10T02:46:46.591Z,100.00
2023-04-10T02:49:16.540Z,100.00
2023-04-10T02:51:45.604Z,100.00
2023-04-10T02:54:13.352Z,100.00
2023-04-10T02:56:43.137Z,100.00
2023-04-10T02:59:10.933Z,100.00
2023-04-10T03:01:39.427Z,100.00
2023-04-10T03:04:07.687Z,100.00
2023-04-10T03:06:41.036Z,100.00
2023-04-10T03:09:08.896Z,100.00
2023-04-10T03:11:36.825Z,100.00
2023-04-10T03:14:05.596Z,100.00
2023-04-10T03:16:33.617Z,100.00
2023-04-10T03:19:04.409Z,100.00
2023-04-10T03:21:32.377Z,100.00
2023-04-10T03:24:02.725Z,100.00
2023-04-10T03:26:30.712Z,100.00
2023-04-10T03:28:58.631Z,100.00
2023-04-10T03:31:26.424Z,100.00
2023-04-10T03:33:57.836Z,100.00
2023-04-10T03:36:27.409Z,100.00
2023-04-10T03:38:55.285Z,100.00
2023-04-10T03:41:25.557Z,100.00
2023-04-10T03:43:53.936Z,100.00
2023-04-10T03:46:22.715Z,100.00
2023-04-10T03:48:52.803Z,100.00
2023-04-10T03:51:23.416Z,100.00
2023-04-10T03:53:52.269Z,100.00
2023-04-10T03:56:20.498Z,100.00
2023-04-10T03:58:49.787Z,100.00
2023-04-10T04:01:17.691Z,100.00
2023-04-10T04:03:58.949Z,100.00
2023-04-10T04:06:48.667Z,100.00
2023-04-10T04:09:48.757Z,100.00
2023-04-10T04:12:16.487Z,100.00
2023-04-10T04:15:12.157Z,100.00
2023-04-10T04:17:48.927Z,100.00
2023-04-10T04:20:40.065Z,100.00
2023-04-10T04:23:34.288Z,100.00
2023-04-10T04:26:27.590Z,100.00
2023-04-10T04:29:14.053Z,100.00
2023-04-10T04:32:03.540Z,100.00
2023-04-10T04:34:49.978Z,100.00
2023-04-10T04:37:33.361Z,100.00
2023-04-10T04:40:37.686Z,100.00
2023-04-10T04:43:11.892Z,100.00
2023-04-10T04:46:02.503Z,100.00
2023-04-10T04:49:00.820Z,100.00
2023-04-10T04:51:38.167Z,100.00
2023-04-10T04:54:10.443Z,100.00
2023-04-10T04:56:56.831Z,100.00
2023-04-10T04:59:44.871Z,100.00
2023-04-10T05:02:38.932Z,100.00
2023-04-10T05:05:18.132Z,100.00
2023-04-10T05:07:52.450Z,100.00
2023-04-10T05:10:39.348Z,100.00
2023-04-10T05:13:30.314Z,100.00
2023-04-10T05:16:14.395Z,100.00
2023-04-10T05:19:01.311Z,100.00
2023-04-10T05:21:54.464Z,100.00
2023-04-10T05:24:42.556Z,100.00
2023-04-10T05:27:16.342Z,100.00
2023-04-10T05:30:04.508Z,100.00
2023-04-10T05:32:42.749Z,100.00
2023-04-10T05:35:19.790Z,100.00
2023-04-10T05:38:13.480Z,100.00
2023-04-10T05:40:46.759Z,100.00
2023-04-10T05:43:33.144Z,100.00
2023-04-10T05:46:21.257Z,100.00
2023-04-10T05:49:22.450Z,100.00
2023-04-10T05:52:08.838Z,100.00
2023-04-10T05:54:56.723Z,100.00
2023-04-10T05:57:33.366Z,100.00
2023-04-10T06:00:19.171Z,100.00
2023-04-10T06:03:07.049Z,100.00
2023-04-10T06:05:45.894Z,100.00
2023-04-10T06:08:13.700Z,100.00
2023-04-10T06:10:44.392Z,100.00
2023-04-10T06:13:12.666Z,100.00
2023-04-10T06:15:40.634Z,100.00
2023-04-10T06:18:09.125Z,100.00
2023-04-10T06:20:38.560Z,100.00
2023-04-10T06:23:06.883Z,100.00
2023-04-10T06:25:34.775Z,100.00
2023-04-10T06:28:03.983Z,100.00
2023-04-10T06:30:33.913Z,100.00
2023-04-10T06:33:02.399Z,100.00
2023-04-10T06:35:32.814Z,100.00
2023-04-10T06:38:00.727Z,100.00
2023-04-10T06:40:30.926Z,100.00
2023-04-10T06:42:58.690Z,100.00
2023-04-10T06:45:36.816Z,100.00
2023-04-10T06:48:04.981Z,100.00
2023-04-10T06:50:33.532Z,100.00
2023-04-10T06:53:01.558Z,100.00
2023-04-10T06:55:29.456Z,100.00
2023-04-10T06:57:57.592Z,100.00
2023-04-10T07:00:25.836Z,100.00
2023-04-10T07:02:55.273Z,100.00
2023-04-10T07:05:23.685Z,100.00
2023-04-10T07:07:51.775Z,100.00
2023-04-10T07:10:19.614Z,100.00
2023-04-10T07:12:47.453Z,100.00
2023-04-10T07:15:15.251Z,100.00
2023-04-10T07:17:43.210Z,100.00
2023-04-10T07:20:13.236Z,100.00
2023-04-10T07:22:41.206Z,100.00
2023-04-10T07:25:10.055Z,100.00
2023-04-10T07:27:37.836Z,100.00
2023-04-10T07:30:06.850Z,100.00
2023-04-10T07:32:35.288Z,100.00
2023-04-10T07:35:03.190Z,100.00
2023-04-10T07:37:32.315Z,100.00
2023-04-10T07:40:00.538Z,100.00
2023-04-10T07:42:28.286Z,100.00
2023-04-10T07:44:56.114Z,100.00
2023-04-10T07:47:23.890Z,100.00
2023-04-10T07:49:52.309Z,100.00
2023-04-10T07:52:20.032Z,100.00
2023-04-10T07:54:49.236Z,100.00
2023-04-10T07:57:17.521Z,100.00
2023-04-10T07:59:45.387Z,100.00
2023-04-10T08:02:13.310Z,100.00
2023-04-10T08:04:43.244Z,100.00
2023-04-10T08:07:11.104Z,100.00
2023-04-10T08:09:38.892Z,100.00
2023-04-10T08:12:08.184Z,100.00
2023-04-10T08:14:35.936Z,100.00
2023-04-10T08:17:03.852Z,100.00
2023-04-10T08:19:31.808Z,100.00
2023-04-10T08:21:59.697Z,100.00
2023-04-10T08:24:27.583Z,100.00
2023-04-10T08:26:55.363Z,100.00
2023-04-10T08:32:00.533Z,100.00
2023-04-10T08:34:28.441Z,100.00
2023-04-10T08:37:12.322Z,100.00
2023-04-10T08:39:40.517Z,100.00
2023-04-10T08:42:08.720Z,100.00
2023-04-10T08:44:39.104Z,100.00
2023-04-10T08:47:07.918Z,100.00
2023-04-10T08:49:44.890Z,100.00
2023-04-10T08:52:16.850Z,100.00
2023-04-10T08:54:49.070Z,100.00
2023-04-10T08:57:20.630Z,100.00
2023-04-10T08:59:51.553Z,100.00
2023-04-10T09:02:20.110Z,100.00
2023-04-10T09:04:50.301Z,100.00
2023-04-10T09:07:18.575Z,100.00
2023-04-10T09:09:46.396Z,96.96
2023-04-10T09:12:15.560Z,97.11
2023-04-10T09:14:44.139Z,99.64
2023-04-10T09:17:15.762Z,94.14
2023-04-10T09:19:44.926Z,93.79
2023-04-10T09:22:13.203Z,92.48
2023-04-10T09:24:43.187Z,89.76
2023-04-10T09:27:11.852Z,91.59
2023-04-10T09:29:42.506Z,90.26
2023-04-10T09:32:10.494Z,90.85
2023-04-10T09:34:54.614Z,89.04
2023-04-10T09:37:22.756Z,86.57
2023-04-10T09:39:50.709Z,79.80
2023-04-10T09:42:31.367Z,74.04
2023-04-10T09:44:59.550Z,72.33
2023-04-10T09:47:27.396Z,78.33
2023-04-10T09:50:00.233Z,75.22
2023-04-10T09:52:29.547Z,80.68
2023-04-10T09:54:58.971Z,67.64
2023-04-10T09:57:30.748Z,65.89
2023-04-10T09:59:59.966Z,66.19
2023-04-10T10:02:31.399Z,70.10
2023-04-10T10:05:01.732Z,70.54
2023-04-10T10:07:31.635Z,61.19
2023-04-10T10:09:59.837Z,63.90
2023-04-10T10:12:35.231Z,64.70
2023-04-10T10:15:10.151Z,63.62
2023-04-10T10:17:43.346Z,60.14
2023-04-10T10:20:14.492Z,67.41
2023-04-10T10:22:43.280Z,58.46
2023-04-10T10:25:11.862Z,63.64
2023-04-10T10:27:41.138Z,60.40
2023-04-10T10:30:28.359Z,62.96
2023-04-10T10:32:58.876Z,59.64
2023-04-10T10:35:29.947Z,61.77
2023-04-10T10:38:00.270Z,57.96
2023-04-10T10:40:33.468Z,59.26
2023-04-10T10:43:14.668Z,52.06
2023-04-10T10:45:49.365Z,52.42
2023-04-10T10:48:17.230Z,53.26
2023-04-10T10:50:58.837Z,52.08
2023-04-10T10:53:36.172Z,50.88
2023-04-10T10:56:34.455Z,51.54
2023-04-10T10:59:02.998Z,46.95
2023-04-10T11:01:30.848Z,47.20
2023-04-10T11:03:59.996Z,48.99
2023-04-10T11:06:52.298Z,49.23
2023-04-10T11:09:48.739Z,49.35
2023-04-10T11:12:17.407Z,44.39
2023-04-10T11:14:46.296Z,45.35
2023-04-10T11:17:14.151Z,44.76
2023-04-10T11:20:01.824Z,44.78
2023-04-10T11:22:31.319Z,45.71
2023-04-10T11:25:02.449Z,44.68
2023-04-10T11:27:46.270Z,44.09
2023-04-10T11:30:30.639Z,46.11
2023-04-10T11:32:59.219Z,47.51
2023-04-10T11:35:28.266Z,47.71
2023-04-10T11:38:27.778Z,45.06
2023-04-10T11:41:04.248Z,43.48
2023-04-10T11:43:32.546Z,43.77
2023-04-10T11:46:05.296Z,42.64
2023-04-10T11:48:33.667Z,42.91
2023-04-10T11:51:08.582Z,42.19
2023-04-10T11:53:38.368Z,43.06
2023-04-10T11:56:07.732Z,42.65
2023-04-10T11:58:35.521Z,44.68
2023-04-10T12:01:04.503Z,42.19
2023-04-10T12:03:37.500Z,44.69
2023-04-10T12:06:08.836Z,42.84
2023-04-10T12:08:39.629Z,41.43
2023-04-10T12:11:08.430Z,41.79
2023-04-10T12:13:36.964Z,39.85
2023-04-10T12:16:07.854Z,42.17
2023-04-10T12:18:36.167Z,42.57
2023-04-10T12:21:07.476Z,43.51
2023-04-10T12:23:40.135Z,41.94
2023-04-10T12:26:15.746Z,42.80
2023-04-10T12:28:50.388Z,40.22
2023-04-10T12:31:18.435Z,42.35
2023-04-10T12:33:47.298Z,42.77
2023-04-10T12:36:22.377Z,41.30
2023-04-10T12:38:51.884Z,44.31
2023-04-10T12:41:27.088Z,43.43
2023-04-10T12:44:07.471Z,41.28
2023-04-10T12:46:36.480Z,44.35
2023-04-10T12:49:12.047Z,40.91
2023-04-10T12:51:47.384Z,39.65
2023-04-10T12:54:33.487Z,38.25
2023-04-10T12:57:05.204Z,42.57
2023-04-10T12:59:33.716Z,39.20
2023-04-10T13:02:01.747Z,39.73
2023-04-10T13:04:33.028Z,39.27
2023-04-10T13:07:01.191Z,38.60
2023-04-10T13:09:29.007Z,37.89
2023-04-10T13:11:58.385Z,38.87
2023-04-10T13:14:26.210Z,38.64
2023-04-10T13:16:53.989Z,39.77
2023-04-10T13:19:21.748Z,42.87
2023-04-10T13:21:50.726Z,41.94
2023-04-10T13:24:18.536Z,42.00
2023-04-10T13:26:46.428Z,41.08
2023-04-10T13:29:15.732Z,42.73
2023-04-10T13:31:43.536Z,39.79
2023-04-10T13:34:11.608Z,40.47
2023-04-10T13:36:39.799Z,39.35
2023-04-10T13:39:07.717Z,39.01
2023-04-10T13:41:35.932Z,37.48
2023-04-10T13:44:03.770Z,37.92
2023-04-10T13:46:34.072Z,40.10
2023-04-10T13:49:02.194Z,40.49
2023-04-10T13:51:30.052Z,40.51
2023-04-10T13:53:58.835Z,42.65
2023-04-10T13:56:26.828Z,41.92
2023-04-10T13:58:54.768Z,41.27
2023-04-10T14:01:23.149Z,41.50
2023-04-10T14:03:52.477Z,40.69
2023-04-10T14:06:20.315Z,39.56
2023-04-10T14:08:48.170Z,37.03
2023-04-10T14:11:16.725Z,38.18
2023-04-10T14:13:44.491Z,36.30
2023-04-10T14:16:13.012Z,37.08
2023-04-10T14:18:41.556Z,38.92
2023-04-10T14:21:13.564Z,39.76
2023-04-10T14:23:42.294Z,40.40
2023-04-10T14:26:10.149Z,39.09
2023-04-10T14:28:38.322Z,39.73
2023-04-10T14:31:08.043Z,40.58
2023-04-10T14:33:36.195Z,39.63
2023-04-10T14:36:04.317Z,38.48
2023-04-10T14:38:34.151Z,38.52
2023-04-10T14:41:02.091Z,39.55
2023-04-10T14:43:29.893Z,38.36
2023-04-10T14:45:57.688Z,38.29
2023-04-10T14:48:26.242Z,37.79
2023-04-10T14:50:54.982Z,36.87
2023-04-10T14:53:23.331Z,36.84
2023-04-10T14:55:52.787Z,35.33
2023-04-10T14:58:20.681Z,36.52
2023-04-10T15:00:50.712Z,33.84
2023-04-10T15:03:19.141Z,36.69
2023-04-10T15:05:47.259Z,36.73
2023-04-10T15:08:15.541Z,38.44
2023-04-10T15:10:43.389Z,38.82
2023-04-10T15:13:12.708Z,38.14
2023-04-10T15:15:43.401Z,37.29
2023-04-10T15:18:11.287Z,38.19
2023-04-10T15:20:39.268Z,37.47
2023-04-10T15:23:07.426Z,39.45
2023-04-10T15:25:35.907Z,38.59
2023-04-10T15:28:03.819Z,38.99
2023-04-10T15:30:33.550Z,36.99
2023-04-10T15:33:01.905Z,37.64
2023-04-10T15:35:30.513Z,38.05
2023-04-10T15:37:58.734Z,38.10
2023-04-10T15:40:26.921Z,38.47
2023-04-10T15:42:55.042Z,39.94
2023-04-10T15:45:23.345Z,39.74
2023-04-10T15:47:52.952Z,38.22
2023-04-10T15:50:20.835Z,38.69
2023-04-10T15:52:48.594Z,39.49
2023-04-10T15:55:17.086Z,39.99
2023-04-10T15:57:45.442Z,39.04
2023-04-10T16:00:14.685Z,38.81
2023-04-10T16:02:42.837Z,38.80
2023-04-10T16:05:12.314Z,39.64
2023-04-10T16:07:42.194Z,39.53
2023-04-10T16:10:11.527Z,40.54
2023-04-10T16:12:39.539Z,40.24
2023-04-10T16:15:09.052Z,41.09
2023-04-10T16:17:36.912Z,41.46
2023-04-10T16:20:06.844Z,42.11
2023-04-10T16:22:36.864Z,43.16
2023-04-10T16:25:05.254Z,43.28
2023-04-10T16:27:35.693Z,43.25
2023-04-10T16:30:05.801Z,44.33
2023-04-10T16:32:34.354Z,43.14
2023-04-10T16:35:02.262Z,44.03
2023-04-10T16:37:34.364Z,44.39
2023-04-10T16:40:04.413Z,44.40
2023-04-10T16:42:32.328Z,45.34
2023-04-10T16:45:04.209Z,46.09
2023-04-10T16:47:32.191Z,47.37
2023-04-10T16:50:00.269Z,47.23
2023-04-10T16:52:28.465Z,47.76
2023-04-10T16:54:56.470Z,49.06
2023-04-10T16:57:26.008Z,48.80
2023-04-10T16:59:57.089Z,48.83
2023-04-10T17:02:25.603Z,49.89
2023-04-10T17:04:55.558Z,50.23
2023-04-10T17:07:23.939Z,50.42
2023-04-10T17:09:52.277Z,52.03
2023-04-10T17:12:20.148Z,51.47
2023-04-10T17:14:49.872Z,55.53
2023-04-10T17:17:17.864Z,55.40
2023-04-10T17:19:45.977Z,55.22
2023-04-10T17:22:16.565Z,57.40
2023-04-10T17:24:44.717Z,58.35
2023-04-10T17:27:13.134Z,59.60
2023-04-10T17:29:41.379Z,62.66
2023-04-10T17:32:10.868Z,64.59
2023-04-10T17:34:38.733Z,62.97
2023-04-10T17:37:06.634Z,65.99
2023-04-10T17:39:34.459Z,67.12
2023-04-10T17:42:02.434Z,67.68
2023-04-10T17:44:30.240Z,70.98
2023-04-10T17:46:58.372Z,71.19
2023-04-10T17:49:27.558Z,73.00
2023-04-10T17:51:55.329Z,73.04
2023-04-10T17:54:23.267Z,73.61
2023-04-10T17:56:53.317Z,76.70
2023-04-10T17:59:21.112Z,79.65
2023-04-10T18:01:49.127Z,81.44
2023-04-10T18:04:17.075Z,80.44
2023-04-10T18:06:46.481Z,80.10
2023-04-10T18:09:14.759Z,83.98
2023-04-10T18:11:42.616Z,86.10
2023-04-10T18:14:11.131Z,85.64
2023-04-10T18:16:38.974Z,84.94
2023-04-10T18:19:07.249Z,86.79
2023-04-10T18:21:35.701Z,88.25
2023-04-10T18:24:05.116Z,88.40
2023-04-10T18:26:34.813Z,92.88
2023-04-10T18:29:02.711Z,93.88
2023-04-10T18:31:30.908Z,91.83
2023-04-10T18:34:07.112Z,93.54
2023-04-10T18:36:36.486Z,96.58
2023-04-10T18:39:05.849Z,98.03
2023-04-10T18:41:33.828Z,100.00
2023-04-10T18:44:05.364Z,100.00
2023-04-10T18:46:33.794Z,99.59
2023-04-10T18:49:03.046Z,100.00
2023-04-10T18:51:33.908Z,100.00
2023-04-10T18:54:03.021Z,100.00
2023-04-10T18:56:32.610Z,100.00
2023-04-10T18:59:00.637Z,100.00
2023-04-10T19:01:28.935Z,100.00
2023-04-10T19:03:57.486Z,100.00
2023-04-10T19:06:26.852Z,100.00
2023-04-10T19:08:55.793Z,100.00
2023-04-10T19:11:23.791Z,100.00
2023-04-10T19:13:53.345Z,100.00
2023-04-10T19:16:21.423Z,100.00
2023-04-10T19:18:49.807Z,100.00
2023-04-10T19:21:17.579Z,100.00
2023-04-10T19:23:46.446Z,100.00
2023-04-10T19:26:14.213Z,100.00
2023-04-10T19:28:42.135Z,100.00
2023-04-10T19:31:11.567Z,100.00
2023-04-10T19:33:39.491Z,100.00
2023-04-10T19:36:08.613Z,100.00
2023-04-10T19:38:36.673Z,100.00
2023-04-10T19:41:04.528Z,100.00
2023-04-10T19:43:33.526Z,100.00
2023-04-10T19:46:01.276Z,100.00
2023-04-10T19:48:30.630Z,100.00
2023-04-10T19:51:07.261Z,100.00
2023-04-10T19:53:35.068Z,100.00
2023-04-10T19:56:03.043Z,100.00
2023-04-10T20:01:04.390Z,100.00
2023-04-10T20:03:34.139Z,100.00
2023-04-10T20:06:03.622Z,100.00
2023-04-10T20:08:31.763Z,100.00
2023-04-10T20:10:59.797Z,100.00
2023-04-10T20:13:27.602Z,100.00
2023-04-10T20:15:55.465Z,100.00
2023-04-10T20:18:23.330Z,100.00
2023-04-10T20:20:52.452Z,100.00
2023-04-10T20:23:20.283Z,100.00
2023-04-10T20:25:48.060Z,100.00
2023-04-10T20:28:17.334Z,100.00
2023-04-10T20:30:45.333Z,100.00
2023-04-10T20:33:13.169Z,100.00
2023-04-10T20:35:40.967Z,100.00
2023-04-10T20:38:10.145Z,100.00
2023-04-10T20:40:37.895Z,100.00
2023-04-10T20:43:10.845Z,100.00
2023-04-10T20:45:38.944Z,100.00
2023-04-10T20:48:07.647Z,100.00
2023-04-10T20:50:36.904Z,100.00
2023-04-10T20:53:04.746Z,100.00
2023-04-10T20:55:38.616Z,100.00
2023-04-10T20:58:07.245Z,100.00
2023-04-10T21:00:35.830Z,100.00
2023-04-10T21:03:03.876Z,100.00
2023-04-10T21:05:31.816Z,100.00
2023-04-10T21:07:59.679Z,100.00
2023-04-10T21:10:27.459Z,100.00
2023-04-10T21:12:56.688Z,100.00
2023-04-10T21:15:24.495Z,100.00
2023-04-10T21:17:52.436Z,100.00
2023-04-10T21:20:20.372Z,100.00
2023-04-10T21:22:48.180Z,100.00
2023-04-10T21:25:16.091Z,100.00
2023-04-10T21:27:43.911Z,100.00
2023-04-10T21:30:13.564Z,100.00
2023-04-10T21:32:41.439Z,100.00
2023-04-10T21:35:09.789Z,100.00
2023-04-10T21:37:37.564Z,100.00
2023-04-10T21:40:06.415Z,100.00
2023-04-10T21:42:34.206Z,100.00
2023-04-10T21:45:01.997Z,100.00
2023-04-10T21:47:31.156Z,100.00
2023-04-10T21:49:58.962Z,100.00
2023-04-10T21:52:26.777Z,100.00
2023-04-10T21:54:54.614Z,100.00
2023-04-10T21:57:22.432Z,100.00
2023-04-10T21:59:50.260Z,100.00
2023-04-10T22:02:18.160Z,100.00
2023-04-10T22:04:53.988Z,100.00
2023-04-10T22:07:22.779Z,100.00
2023-04-10T22:09:50.641Z,100.00
2023-04-10T22:12:18.412Z,100.00
2023-04-10T22:14:49.344Z,100.00
2023-04-10T22:17:17.151Z,100.00
2023-04-10T22:19:44.955Z,100.00
2023-04-10T22:22:14.068Z,100.00
2023-04-10T22:24:41.949Z,100.00
2023-04-10T22:27:09.726Z,100.00
2023-04-10T22:29:37.555Z,100.00
2023-04-10T22:32:05.544Z,100.00
2023-04-10T22:34:33.335Z,100.00
2023-04-10T22:37:01.078Z,100.00
2023-04-10T22:39:30.274Z,100.00
2023-04-10T22:41:58.017Z,100.00
2023-04-10T22:44:25.832Z,100.00
2023-04-10T22:46:53.638Z,100.00
2023-04-10T22:49:21.439Z,100.00
2023-04-10T22:51:49.319Z,100.00
2023-04-10T22:54:17.113Z,100.00
2023-04-10T22:56:46.274Z,100.00
2023-04-10T22:59:14.099Z,100.00
2023-04-10T23:01:41.974Z,100.00
2023-04-10T23:04:09.849Z,100.00
2023-04-10T23:06:37.630Z,100.00
2023-04-10T23:09:05.508Z,100.00
2023-04-10T23:11:33.325Z,100.00
2023-04-10T23:14:02.478Z,100.00
2023-04-10T23:16:30.296Z,100.00
2023-04-10T23:18:58.059Z,100.00
2023-04-10T23:21:27.081Z,100.00
2023-04-10T23:23:54.858Z,100.00
2023-04-10T23:26:22.723Z,100.00
2023-04-10T23:28:50.591Z,100.00
2023-04-10T23:31:19.735Z,100.00
2023-04-10T23:33:47.557Z,100.00
2023-04-10T23:36:15.504Z,100.00
2023-04-10T23:38:43.388Z,100.00
2023-04-10T23:41:11.154Z,100.00
2023-04-10T23:43:39.045Z,100.00
2023-04-10T23:46:07.353Z,100.00
2023-04-10T23:48:36.522Z,100.00
2023-04-10T23:51:05.350Z,100.00
2023-04-10T23:53:33.511Z,100.00
2023-04-10T23:56:01.465Z,100.00
2023-04-10T23:58:29.239Z,100.00
